Time;durP1;ratioP1;P1;durP2;ratioP2;P2;SDS_P1;SDS_P2;PMS_P1;PMS_P2;Temp;Humidity;BMP_temperature;BMP_pressure;BME280_temperature;BME280_humidity;BME280_pressure;Samples;Min_cycle;Max_cycle;Signal;HPM_P1;HPM_P2
2024/02/14 00:04:56;;;;;;;3.13;1.50;;;;;;;3.77;100.00;98787.31;15290358;19;20019;-51
2024/02/14 00:10:20;;;;;;;2.58;1.35;;;;;;;3.84;100.00;98789.44;15295505;19;20022;-49
2024/02/14 00:15:49;;;;;;;4.15;1.27;;;;;;;3.93;100.00;98784.41;15292296;19;20014;-49
2024/02/14 00:21:13;;;;;;;3.00;1.50;;;;;;;4.00;100.00;98778.53;15294189;19;20027;-50
2024/02/14 00:26:39;;;;;;;3.78;1.48;;;;;;;4.11;100.00;98766.22;15296678;19;20090;-50
2024/02/14 00:32:08;;;;;;;3.63;1.27;;;;;;;4.18;100.00;98772.81;15290835;19;20021;-51
2024/02/14 00:37:33;;;;;;;2.88;1.40;;;;;;;4.19;100.00;98768.34;15302450;19;20014;-52
2024/02/14 00:42:58;;;;;;;2.08;1.20;;;;;;;4.19;100.00;98769.16;15298128;19;20026;-50
2024/02/14 00:48:26;;;;;;;6.95;1.40;;;;;;;4.25;100.00;98765.22;15284256;19;20082;-48
2024/02/14 00:53:50;;;;;;;4.15;1.50;;;;;;;4.29;100.00;98769.38;15281987;19;20022;-58
2024/02/14 00:59:15;;;;;;;2.90;1.40;;;;;;;4.35;100.00;98768.06;15283959;19;20484;-60
2024/02/14 01:04:42;;;;;;;2.70;1.40;;;;;;;4.30;100.00;98763.91;15288707;19;20015;-55
2024/02/14 01:10:07;;;;;;;3.50;1.50;;;;;;;4.30;100.00;98763.06;15297812;19;20025;-56
2024/02/14 01:15:33;;;;;;;2.85;1.27;;;;;;;4.28;100.00;98765.84;15291657;19;20070;-57
2024/02/14 01:21:01;;;;;;;3.10;1.45;;;;;;;4.26;100.00;98765.13;15292279;19;20018;-58
2024/02/14 01:26:26;;;;;;;1.90;1.40;;;;;;;4.27;100.00;98761.47;15293278;19;20343;-57
2024/02/14 01:31:51;;;;;;;3.42;1.50;;;;;;;4.31;100.00;98757.59;15288602;19;20024;-60
2024/02/14 01:37:20;;;;;;;2.15;1.20;;;;;;;4.32;100.00;98753.13;15294049;19;20018;-59
2024/02/14 01:42:45;;;;;;;1.70;1.30;;;;;;;4.40;100.00;98747.25;15288810;19;20097;-53
2024/02/14 01:48:12;;;;;;;2.72;1.30;;;;;;;4.44;100.00;98746.91;15285021;19;20022;-57
2024/02/14 01:53:47;;;;;;;2.45;1.33;;;;;;;4.49;100.00;98738.53;15286509;19;20033;-58
2024/02/14 01:59:12;;;;;;;2.92;1.60;;;;;;;4.53;100.00;98726.66;15286982;19;20376;-56
2024/02/14 02:04:37;;;;;;;1.63;1.27;;;;;;;4.55;100.00;98730.06;15288536;19;20467;-57
2024/02/14 02:10:05;;;;;;;2.80;1.30;;;;;;;4.54;100.00;98725.69;15285865;19;20018;-59
2024/02/14 02:15:30;;;;;;;2.67;1.30;;;;;;;4.59;100.00;98717.34;15288588;19;20399;-59
2024/02/14 02:20:55;;;;;;;2.20;1.33;;;;;;;4.62;100.00;98723.31;15285625;19;20023;-57
2024/02/14 02:26:23;;;;;;;1.95;1.17;;;;;;;4.65;100.00;98721.34;15285324;19;20022;-59
2024/02/14 02:31:49;;;;;;;2.00;1.30;;;;;;;4.71;100.00;98711.06;15284808;19;20015;-56
2024/02/14 02:37:14;;;;;;;1.45;1.20;;;;;;;4.72;100.00;98709.28;15287854;19;20020;-56
2024/02/14 02:42:41;;;;;;;2.17;1.38;;;;;;;4.74;100.00;98708.19;15281625;19;20085;-59
2024/02/14 02:48:06;;;;;;;2.90;1.20;;;;;;;4.75;100.00;98707.22;15279453;19;20024;-56
2024/02/14 02:53:31;;;;;;;4.40;1.30;;;;;;;4.75;100.00;98701.03;15287894;19;20734;-57
2024/02/14 02:58:59;;;;;;;1.75;0.98;;;;;;;4.78;100.00;98692.75;15283602;19;20025;-58
2024/02/14 03:04:24;;;;;;;3.47;1.17;;;;;;;4.78;100.00;98692.75;15288178;19;20428;-59
2024/02/14 03:10:06;;;;;;;1.75;1.08;;;;;;;4.81;100.00;98687.19;15283386;19;20014;-57
2024/02/14 03:15:35;;;;;;;3.85;0.93;;;;;;;4.80;100.00;98680.16;15286025;19;20089;-61
2024/02/14 03:21:00;;;;;;;1.70;1.05;;;;;;;4.77;100.00;98677.72;15282657;19;20006;-56
2024/02/14 03:26:26;;;;;;;1.83;0.90;;;;;;;4.76;100.00;98665.38;15286294;19;20074;-59
2024/02/14 03:31:57;;;;;;;2.42;1.08;;;;;;;4.83;100.00;98660.38;15282814;19;20025;-55
2024/02/14 03:37:21;;;;;;;1.60;0.80;;;;;;;4.84;100.00;98648.72;15289349;19;20014;-56
2024/02/14 03:42:46;;;;;;;2.47;0.80;;;;;;;4.84;100.00;98648.72;15280901;19;20824;-58
2024/02/14 03:48:14;;;;;;;3.90;1.00;;;;;;;4.81;100.00;98641.81;15277773;19;20031;-58
2024/02/14 03:53:46;;;;;;;1.13;0.80;;;;;;;4.81;100.00;98636.47;15287915;19;20033;-58
2024/02/14 03:59:10;;;;;;;1.60;0.90;;;;;;;4.81;100.00;98633.81;15285007;19;20025;-59
2024/02/14 04:04:38;;;;;;;1.92;0.77;;;;;;;4.85;100.00;98632.63;15293826;19;20074;-60
2024/02/14 04:10:03;;;;;;;2.05;0.65;;;;;;;4.87;100.00;98630.69;15297245;19;20018;-59
2024/02/14 04:15:28;;;;;;;1.35;0.70;;;;;;;4.91;100.00;98624.13;15291234;19;20029;-59
2024/02/14 04:20:55;;;;;;;2.17;0.80;;;;;;;4.99;100.00;98620.84;15292899;19;20046;-60
2024/02/14 04:26:28;;;;;;;1.85;0.77;;;;;;;5.00;100.00;98613.69;15292754;19;20020;-59
2024/02/14 04:31:52;;;;;;;2.45;0.80;;;;;;;4.98;100.00;98597.78;15301048;19;20406;-63
2024/02/14 04:37:20;;;;;;;3.42;1.45;;;;;;;4.99;100.00;98602.16;15294572;19;20582;-61
2024/02/14 04:42:45;;;;;;;2.05;0.80;;;;;;;4.98;100.00;98595.13;15297146;19;20474;-58
2024/02/14 04:48:10;;;;;;;1.52;0.80;;;;;;;4.95;100.00;98592.69;15295733;19;20538;-58
2024/02/14 04:53:39;;;;;;;1.45;0.65;;;;;;;4.97;100.00;98597.91;15296646;19;20023;-58
2024/02/14 04:59:05;;;;;;;1.27;0.70;;;;;;;4.99;100.00;98604.00;15297848;19;20502;-58
2024/02/14 05:04:31;;;;;;;1.42;0.68;;;;;;;5.00;100.00;98608.38;15298294;19;20014;-57
2024/02/14 05:09:59;;;;;;;2.83;0.80;;;;;;;5.01;100.00;98596.69;15289213;19;20034;-60
2024/02/14 05:15:23;;;;;;;2.33;0.90;;;;;;;5.02;100.00;98601.06;15290643;19;20014;-59
2024/02/14 05:20:49;;;;;;;3.03;0.82;;;;;;;5.03;100.00;98592.94;15291196;19;20882;-57
2024/02/14 05:26:17;;;;;;;2.28;1.10;;;;;;;5.05;100.00;98580.31;15292499;19;20022;-60
2024/02/14 05:31:55;;;;;;;2.88;1.25;;;;;;;5.07;100.00;98588.19;15292279;19;20077;-57
2024/02/14 05:37:27;;;;;;;2.13;1.10;;;;;;;5.12;100.00;98575.31;15294982;19;20021;-58
2024/02/14 05:43:07;;;;;;;2.33;1.10;;;;;;;5.12;100.00;98569.13;15292744;19;20098;-59
2024/02/14 05:48:31;;;;;;;2.50;1.20;;;;;;;5.14;100.00;98568.03;15291428;19;20019;-58
2024/02/14 05:53:59;;;;;;;2.65;1.08;;;;;;;5.17;100.00;98567.78;15291794;19;20025;-57
2024/02/14 05:59:27;;;;;;;1.67;1.10;;;;;;;5.17;100.00;98567.78;15293611;19;20014;-58
2024/02/14 06:04:53;;;;;;;1.83;1.00;;;;;;;5.21;100.00;98560.38;15294480;19;20029;-59
2024/02/14 06:10:18;;;;;;;2.72;0.95;;;;;;;5.24;100.00;98568.97;15289362;19;20025;-60
2024/02/14 06:15:45;;;;;;;2.78;0.88;;;;;;;5.27;100.00;98567.91;15283383;19;20033;-59
2024/02/14 06:21:10;;;;;;;2.05;0.80;;;;;;;5.31;100.00;98563.16;15292947;19;20027;-60
2024/02/14 06:26:35;;;;;;;2.53;0.98;;;;;;;5.34;100.00;98568.25;15290341;19;20018;-58
2024/02/14 06:32:02;;;;;;;2.75;1.10;;;;;;;5.33;100.00;98567.41;15291044;19;20039;-59
2024/02/14 06:37:27;;;;;;;2.22;0.90;;;;;;;5.31;100.00;98566.66;15292966;19;20077;-59
2024/02/14 06:43:06;;;;;;;4.95;0.95;;;;;;;5.33;100.00;98559.38;15284205;19;20015;-58
2024/02/14 06:48:34;;;;;;;1.88;1.00;;;;;;;5.36;100.00;98574.31;15287277;19;20014;-59
2024/02/14 06:53:59;;;;;;;1.60;0.98;;;;;;;5.41;100.00;98580.16;15289964;19;20078;-58
2024/02/14 06:59:23;;;;;;;3.45;0.80;;;;;;;5.47;100.00;98582.31;15291109;19;20032;-56
2024/02/14 07:04:51;;;;;;;3.28;0.85;;;;;;;5.54;100.00;98582.66;15289886;19;20412;-54
2024/02/14 07:10:17;;;;;;;1.83;0.80;;;;;;;5.62;100.00;98582.03;15279725;19;20509;-55
2024/02/14 07:15:41;;;;;;;1.60;0.80;;;;;;;5.68;100.00;98573.53;15280760;19;20020;-57
2024/02/14 07:21:09;;;;;;;2.95;0.80;;;;;;;5.77;100.00;98580.78;15282691;19;20093;-57
2024/02/14 07:26:33;;;;;;;2.55;0.80;;;;;;;5.86;100.00;98580.00;15282521;19;20345;-57
2024/02/14 07:31:58;;;;;;;2.97;0.80;;;;;;;5.97;100.00;98584.47;15288653;19;20363;-59
2024/02/14 07:37:26;;;;;;;2.75;1.00;;;;;;;6.05;100.00;98599.06;15304708;19;20018;-57
2024/02/14 07:42:51;;;;;;;1.10;0.70;;;;;;;6.11;100.00;98599.38;15300497;19;20123;-55
2024/02/14 07:48:15;;;;;;;3.13;1.00;;;;;;;6.19;100.00;98606.78;15296066;19;20014;-58
2024/02/14 07:53:43;;;;;;;3.00;0.82;;;;;;;6.33;100.00;98616.31;15295241;19;20018;-55
2024/02/14 07:59:08;;;;;;;1.75;0.68;;;;;;;6.42;100.00;98610.16;15304680;19;20020;-56
2024/02/14 08:04:32;;;;;;;4.72;0.85;;;;;;;6.52;100.00;98610.25;15295710;19;20086;-56
2024/02/14 08:10:00;;;;;;;1.90;0.80;;;;;;;6.61;100.00;98603.28;15298160;19;20014;-58
2024/02/14 08:15:24;;;;;;;3.05;0.95;;;;;;;6.70;100.00;98623.88;15299689;19;20102;-56
2024/02/14 08:20:50;;;;;;;1.85;0.70;;;;;;;6.75;100.00;98624.34;15292324;19;20085;-60
2024/02/14 08:26:18;;;;;;;2.88;1.00;;;;;;;6.79;100.00;98641.00;15298049;19;20078;-57
2024/02/14 08:31:43;;;;;;;2.13;0.80;;;;;;;6.81;100.00;98636.38;15300598;19;20021;-59
2024/02/14 08:37:08;;;;;;;2.03;0.80;;;;;;;6.83;100.00;98636.22;15300861;19;20031;-55
2024/02/14 08:42:36;;;;;;;2.08;0.80;;;;;;;6.85;100.00;98634.25;15299569;19;20361;-55
2024/02/14 08:48:00;;;;;;;1.45;0.73;;;;;;;6.89;100.00;98633.00;15297374;19;20011;-59
2024/02/14 08:53:25;;;;;;;2.35;1.00;;;;;;;6.94;100.00;98628.94;15292941;19;20022;-59
2024/02/14 08:58:52;;;;;;;4.05;1.20;;;;;;;7.03;100.00;98629.97;15293178;19;20014;-54
2024/02/14 09:04:17;;;;;;;2.72;0.95;;;;;;;7.18;100.00;98635.81;15295803;19;20097;-56
2024/02/14 09:09:41;;;;;;;3.85;0.85;;;;;;;7.31;100.00;98649.00;15294045;19;20114;-54
2024/02/14 09:15:11;;;;;;;3.33;0.95;;;;;;;7.48;100.00;98652.00;15290744;19;20035;-58
2024/02/14 09:20:37;;;;;;;3.20;1.00;;;;;;;7.61;100.00;98655.31;15296305;19;20013;-57
2024/02/14 09:26:03;;;;;;;2.85;0.82;;;;;;;7.67;100.00;98652.09;15288374;19;20014;-56
2024/02/14 09:31:30;;;;;;;0.93;0.70;;;;;;;7.75;100.00;98650.56;15292834;19;20021;-55
2024/02/14 09:36:56;;;;;;;2.00;0.90;;;;;;;7.81;100.00;98650.00;15293194;19;20021;-55
2024/02/14 09:42:25;;;;;;;1.13;0.70;;;;;;;7.86;100.00;98639.69;15295023;19;20018;-59
2024/02/14 09:47:52;;;;;;;1.73;1.00;;;;;;;7.93;100.00;98629.25;15295299;19;20022;-56
2024/02/14 09:53:19;;;;;;;1.77;0.90;;;;;;;8.00;100.00;98641.13;15291746;19;20078;-59
2024/02/14 09:58:44;;;;;;;1.02;0.63;;;;;;;8.09;100.00;98656.41;15284784;19;20039;-58
2024/02/14 10:04:11;;;;;;;1.50;0.70;;;;;;;8.19;100.00;98637.63;15293441;19;20101;-54
2024/02/14 10:09:43;;;;;;;1.30;0.90;;;;;;;8.36;100.00;98635.22;15291168;19;20026;-58
2024/02/14 10:15:08;;;;;;;3.10;1.00;;;;;;;8.47;100.00;98637.75;15292234;19;20078;-55
2024/02/14 10:20:40;;;;;;;3.58;1.08;;;;;;;8.58;100.00;98645.69;15290122;19;20046;-57
2024/02/14 10:26:07;;;;;;;1.73;0.95;;;;;;;8.66;100.00;98646.81;15282195;19;20312;-57
2024/02/14 10:31:33;;;;;;;2.38;1.00;;;;;;;8.69;100.00;98646.53;15282031;19;20362;-57
2024/02/14 10:37:01;;;;;;;1.42;0.70;;;;;;;8.76;100.00;98647.66;15286853;19;20011;-55
2024/02/14 10:42:26;;;;;;;1.33;0.70;;;;;;;8.88;100.00;98656.41;15287639;19;20463;-55
2024/02/14 10:47:54;;;;;;;1.15;0.70;;;;;;;8.99;100.00;98648.16;15292768;19;20089;-56
2024/02/14 10:53:22;;;;;;;1.33;0.70;;;;;;;9.05;100.00;98647.59;15288505;19;20018;-57
2024/02/14 10:58:49;;;;;;;4.63;0.88;;;;;;;9.08;100.00;98652.66;15035058;19;5002010;-58
2024/02/14 11:04:14;;;;;;;1.00;0.65;;;;;;;9.09;100.00;98643.59;15284025;19;20469;-58
2024/02/14 11:09:45;;;;;;;1.40;0.80;;;;;;;9.05;100.00;98652.09;15296483;19;20015;-57
2024/02/14 11:15:14;;;;;;;2.17;0.80;;;;;;;9.05;100.00;98654.78;15303291;19;20066;-58
2024/02/14 11:20:46;;;;;;;2.58;0.60;;;;;;;9.04;100.00;98653.09;15301356;19;20050;-53
2024/02/14 11:26:18;;;;;;;1.00;0.60;;;;;;;9.01;100.00;98650.69;15297369;19;20081;-57
2024/02/14 11:31:43;;;;;;;1.10;0.70;;;;;;;9.01;100.00;98642.63;15299180;19;20024;-54
2024/02/14 11:37:09;;;;;;;2.47;0.95;;;;;;;9.08;100.00;98652.66;15301265;19;20018;-55
2024/02/14 11:42:36;;;;;;;0.60;0.50;;;;;;;9.13;100.00;98654.91;15303000;19;20042;-57
2024/02/14 11:48:01;;;;;;;1.83;0.90;;;;;;;9.23;100.00;98652.19;15305442;19;20514;-56
2024/02/14 11:53:28;;;;;;;1.67;0.73;;;;;;;9.27;100.00;98650.91;15303889;19;20101;-57
2024/02/14 11:58:55;;;;;;;2.90;0.82;;;;;;;9.30;100.00;98649.75;15295754;19;20365;-56
2024/02/14 12:04:21;;;;;;;1.23;0.47;;;;;;;9.38;100.00;98647.19;15292950;19;20369;-56
2024/02/14 12:09:47;;;;;;;2.38;0.90;;;;;;;9.53;100.00;98632.25;15296472;19;20086;-54
2024/02/14 12:15:19;;;;;;;0.90;0.63;;;;;;;9.60;100.00;98635.19;15295481;19;20018;-57
2024/02/14 12:20:45;;;;;;;1.17;0.63;;;;;;;9.50;100.00;98629.84;15300617;19;20024;-54
2024/02/14 12:26:17;;;;;;;1.40;0.80;;;;;;;9.49;100.00;98638.91;15298159;19;20304;-55
2024/02/14 12:31:45;;;;;;;1.30;0.77;;;;;;;9.50;100.00;98637.91;15294715;19;20082;-55
2024/02/14 12:37:11;;;;;;;0.98;0.70;;;;;;;9.56;100.00;98644.53;15294009;19;20021;-56
2024/02/14 12:42:36;;;;;;;0.93;0.60;;;;;;;9.58;100.00;98652.47;15302074;19;20025;-55
2024/02/14 12:48:03;;;;;;;1.08;0.73;;;;;;;9.63;100.00;98650.19;15300776;19;20373;-53
2024/02/14 12:53:34;;;;;;;1.95;0.57;;;;;;;9.62;100.00;98645.78;15291855;19;20030;-49
2024/02/14 12:58:59;;;;;;;1.30;0.60;;;;;;;9.60;100.00;98655.84;15290847;19;20017;-48
2024/02/14 13:04:26;;;;;;;1.20;0.60;;;;;;;9.54;100.00;98647.41;15296620;19;20018;-49
2024/02/14 13:09:51;;;;;;;0.70;0.70;;;;;;;9.48;100.00;98658.72;15289714;19;20017;-49
2024/02/14 13:15:17;;;;;;;1.27;0.73;;;;;;;9.49;100.00;98648.84;15294523;19;20022;-50
2024/02/14 13:20:44;;;;;;;0.90;0.60;;;;;;;9.55;100.00;98654.47;15298578;19;20467;-50
2024/02/14 13:26:09;;;;;;;1.00;0.55;;;;;;;9.61;100.00;98647.66;15294936;19;20037;-53
2024/02/14 13:31:34;;;;;;;0.88;0.55;;;;;;;9.70;100.00;98649.44;15293603;19;20018;-53
2024/02/14 13:37:02;;;;;;;0.75;0.60;;;;;;;9.81;100.00;98647.53;15293525;19;20031;-54
2024/02/14 13:42:27;;;;;;;0.80;0.50;;;;;;;9.85;100.00;98660.53;15290498;19;20506;-52
2024/02/14 13:47:52;;;;;;;1.65;0.45;;;;;;;9.80;100.00;98657.47;15289447;19;20603;-54
2024/02/14 13:53:20;;;;;;;0.98;0.60;;;;;;;9.76;100.00;98663.28;15291216;19;20558;-49
2024/02/14 13:58:45;;;;;;;1.02;0.50;;;;;;;9.76;100.00;98674.06;15294333;19;20014;-50
2024/02/14 14:04:10;;;;;;;1.33;0.70;;;;;;;9.76;100.00;98645.28;15294441;19;20021;-51
2024/02/14 14:09:37;;;;;;;1.77;0.90;;;;;;;9.83;100.00;98645.53;15291832;19;20753;-51
2024/02/14 14:15:03;;;;;;;1.02;0.60;;;;;;;9.83;100.00;98649.06;15286192;19;20022;-52
2024/02/14 14:20:28;;;;;;;1.27;0.70;;;;;;;9.83;100.00;98646.38;15292890;19;20024;-54
2024/02/14 14:25:55;;;;;;;1.67;0.70;;;;;;;9.85;100.00;98640.84;15289949;19;20021;-50
2024/02/14 14:31:20;;;;;;;2.05;0.70;;;;;;;9.88;100.00;98629.75;15286283;19;20029;-51
2024/02/14 14:36:48;;;;;;;1.55;0.75;;;;;;;9.85;100.00;98640.84;15288422;19;20017;-49
2024/02/14 14:42:17;;;;;;;0.90;0.70;;;;;;;9.79;100.00;98639.63;15289935;19;20027;-49
2024/02/14 14:47:43;;;;;;;1.67;0.70;;;;;;;9.74;100.00;98633.81;15285847;19;20637;-49
2024/02/14 14:53:14;;;;;;;0.70;0.50;;;;;;;9.70;100.00;98645.91;15286308;19;20458;-51
2024/02/14 14:58:42;;;;;;;1.40;0.80;;;;;;;9.65;100.00;98658.94;15291722;19;20007;-53
2024/02/14 15:04:08;;;;;;;2.88;0.70;;;;;;;9.64;100.00;98665.31;15290645;19;20633;-51
2024/02/14 15:09:35;;;;;;;1.08;0.75;;;;;;;9.58;100.00;98658.69;15289216;19;20029;-50
2024/02/14 15:15:02;;;;;;;0.88;0.75;;;;;;;9.55;100.00;98669.75;15288287;19;20089;-51
2024/02/14 15:20:29;;;;;;;1.55;0.68;;;;;;;9.50;100.00;98667.50;15262076;19;20015;-51
2024/02/14 15:26:02;;;;;;;0.73;0.63;;;;;;;9.49;100.00;98675.72;15285816;19;20017;-49
2024/02/14 15:37:01;;;;;;;1.50;0.70;;;;;;;9.45;100.00;98688.63;15283902;19;20034;-50
2024/02/14 15:42:26;;;;;;;1.83;0.60;;;;;;;9.42;100.00;98702.38;15289446;19;20109;-55
2024/02/14 15:47:57;;;;;;;1.00;0.70;;;;;;;9.38;100.00;98695.56;15290405;19;20428;-50
2024/02/14 15:53:26;;;;;;;0.95;0.60;;;;;;;9.31;100.00;98692.63;15281513;19;20022;-52
2024/02/14 15:58:51;;;;;;;0.88;0.80;;;;;;;9.28;100.00;98689.38;15303680;19;20486;-52
2024/02/14 16:04:18;;;;;;;1.50;0.85;;;;;;;9.19;100.00;98685.72;15301999;19;20098;-53
2024/02/14 16:09:43;;;;;;;0.98;0.80;;;;;;;9.10;100.00;98682.94;15301718;19;20035;-52
2024/02/14 16:15:07;;;;;;;2.33;0.98;;;;;;;9.07;100.00;98683.22;15301244;19;20014;-52
2024/02/14 16:20:34;;;;;;;0.98;0.88;;;;;;;9.02;100.00;98695.38;15297811;19;20549;-50
2024/02/14 16:25:59;;;;;;;2.50;1.02;;;;;;;8.97;100.00;98697.69;15292804;19;20018;-50
2024/02/14 16:31:24;;;;;;;1.15;1.00;;;;;;;8.86;100.00;98696.00;15300361;19;20018;-50
2024/02/14 16:36:51;;;;;;;2.05;1.17;;;;;;;8.75;100.00;98702.38;15294012;19;20728;-49
2024/02/14 16:42:16;;;;;;;1.63;1.02;;;;;;;8.70;100.00;98712.69;15297037;19;20078;-55
2024/02/14 16:47:42;;;;;;;1.38;1.00;;;;;;;8.61;100.00;98712.56;15287114;19;20374;-55
2024/02/14 16:53:16;;;;;;;1.58;1.00;;;;;;;8.54;100.00;98711.41;15287022;19;20092;-53
2024/02/14 16:58:41;;;;;;;1.83;1.30;;;;;;;8.46;100.00;98714.78;15298047;19;20024;-50
2024/02/14 17:04:05;;;;;;;3.35;1.20;;;;;;;8.43;100.00;98716.88;15272640;19;20018;-51
2024/02/14 17:09:33;;;;;;;1.98;1.20;;;;;;;8.43;100.00;98723.13;15298097;19;20049;-51
2024/02/14 17:14:58;;;;;;;1.55;1.15;;;;;;;8.38;100.00;98719.16;15294771;19;20022;-50
2024/02/14 17:20:29;;;;;;;1.10;1.00;;;;;;;8.34;100.00;98734.72;15292761;19;20090;-51
2024/02/14 17:25:57;;;;;;;2.40;1.20;;;;;;;8.29;100.00;98727.03;15286186;19;20018;-50
2024/02/14 17:31:21;;;;;;;1.40;0.85;;;;;;;8.26;100.00;98731.84;15291769;19;20081;-55
2024/02/14 17:36:46;;;;;;;2.80;1.00;;;;;;;8.20;100.00;98733.25;15289939;19;20018;-51
2024/02/14 17:42:14;;;;;;;2.65;1.00;;;;;;;8.17;100.00;98736.22;15295022;19;20014;-50
2024/02/14 17:47:39;;;;;;;3.28;1.00;;;;;;;8.18;100.00;98740.59;15295452;19;20022;-54
2024/02/14 17:53:05;;;;;;;1.40;1.08;;;;;;;8.18;100.00;98740.59;15291365;19;20045;-53
2024/02/14 17:58:33;;;;;;;2.10;1.15;;;;;;;8.23;100.00;98748.25;15288108;19;20033;-54
2024/02/14 18:03:57;;;;;;;3.08;1.25;;;;;;;8.25;100.00;98768.59;15292723;19;20497;-53
2024/02/14 18:09:22;;;;;;;1.40;1.00;;;;;;;8.28;100.00;98762.09;15294027;19;20102;-51
2024/02/14 18:14:50;;;;;;;2.08;1.20;;;;;;;8.27;100.00;98750.53;15290958;19;20020;-53
2024/02/14 18:20:16;;;;;;;1.45;1.25;;;;;;;8.23;100.00;98750.94;15291014;19;20014;-54
2024/02/14 18:25:42;;;;;;;2.63;1.10;;;;;;;8.20;100.00;98760.09;15289534;19;20011;-54
2024/02/14 18:31:13;;;;;;;1.58;1.00;;;;;;;8.18;100.00;98757.56;15284535;19;20042;-55
2024/02/14 18:36:37;;;;;;;1.55;0.85;;;;;;;8.21;100.00;98751.06;15289518;19;20029;-54
2024/02/14 18:42:04;;;;;;;2.28;1.17;;;;;;;8.17;100.00;98752.34;15289613;19;20025;-53
2024/02/14 18:47:31;;;;;;;1.13;1.00;;;;;;;8.12;100.00;98758.09;15290905;19;20022;-51
2024/02/14 18:52:57;;;;;;;1.08;0.95;;;;;;;8.10;100.00;98769.94;15286703;19;20013;-55
2024/02/14 18:58:28;;;;;;;1.20;1.08;;;;;;;8.08;100.00;98771.91;15289995;19;20347;-55
2024/02/14 19:04:04;;;;;;;2.35;1.13;;;;;;;8.08;100.00;98778.16;15288525;19;20015;-82
2024/02/14 19:09:31;;;;;;;1.58;0.90;;;;;;;8.10;100.00;98780.69;15299068;19;20019;-81
2024/02/14 19:14:57;;;;;;;1.92;1.10;;;;;;;8.14;100.00;98787.50;15295691;19;20021;-81
2024/02/14 19:20:26;;;;;;;1.73;1.17;;;;;;;8.18;100.00;98787.06;15301481;19;20070;-84
2024/02/14 19:25:54;;;;;;;1.85;1.15;;;;;;;8.25;100.00;98790.06;15349106;19;20011;-84
2024/02/14 19:31:20;;;;;;;2.08;1.00;;;;;;;8.33;100.00;98786.69;15316696;19;20028;-80
2024/02/14 19:36:47;;;;;;;1.75;0.90;;;;;;;8.40;100.00;98792.38;15315844;19;20033;-81
2024/02/14 19:42:19;;;;;;;1.67;1.10;;;;;;;8.45;100.00;98790.97;15328702;19;20702;-82
2024/02/14 19:47:49;;;;;;;1.35;1.20;;;;;;;8.42;100.00;98788.53;15319537;19;20029;-85
2024/02/14 19:53:16;;;;;;;2.17;1.10;;;;;;;8.38;100.00;98799.69;15313096;19;20019;-83
2024/02/14 19:58:41;;;;;;;1.33;0.90;;;;;;;8.28;100.00;98813.09;15313548;19;20488;-81
2024/02/14 20:04:13;;;;;;;1.63;1.13;;;;;;;8.24;100.00;98831.31;15311868;19;20018;-82
2024/02/14 20:09:40;;;;;;;1.35;1.05;;;;;;;8.23;100.00;98851.09;15316840;19;20544;-81
2024/02/14 20:15:05;;;;;;;1.80;1.30;;;;;;;8.23;100.00;98850.25;15306725;19;20014;-83
2024/02/14 20:20:31;;;;;;;1.58;1.10;;;;;;;8.17;100.00;98846.28;14800485;19;10000565;-85
2024/02/14 20:25:59;;;;;;;1.58;1.10;;;;;;;8.12;100.00;98854.69;15312533;19;20100;-85
2024/02/14 20:31:26;;;;;;;1.63;1.13;;;;;;;8.06;100.00;98854.38;15310784;19;20018;-84
2024/02/14 20:36:51;;;;;;;1.30;1.20;;;;;;;8.06;100.00;98870.50;15313051;19;20015;-84
2024/02/14 20:42:20;;;;;;;1.90;1.40;;;;;;;8.00;100.00;98874.56;15363046;19;20017;-85
2024/02/14 20:47:45;;;;;;;3.08;1.50;;;;;;;7.92;100.00;98877.94;15301906;19;20033;-82
2024/02/14 20:53:12;;;;;;;2.78;1.50;;;;;;;7.89;100.00;98880.00;15299934;19;20035;-79
2024/02/14 20:58:40;;;;;;;5.20;1.60;;;;;;;7.87;100.00;98882.84;15298441;19;20022;-83
2024/02/14 21:04:25;;;;;;;2.17;1.70;;;;;;;7.89;100.00;98890.75;15303034;19;21005;-81
2024/02/14 21:09:50;;;;;;;3.42;1.80;;;;;;;7.91;100.00;98904.88;15211031;19;2004010;-80
2024/02/14 21:15:36;;;;;;;2.03;1.70;;;;;;;7.95;100.00;98904.47;15304215;19;20015;-79
2024/02/14 21:21:24;;;;;;;3.10;1.80;;;;;;;7.97;100.00;98913.25;15299281;19;20018;-80
2024/02/14 21:26:49;;;;;;;3.58;1.98;;;;;;;8.01;100.00;98914.69;15291581;19;20007;-80
2024/02/14 21:32:17;;;;;;;3.17;1.95;;;;;;;8.07;100.00;98936.59;15293220;19;20010;-80
2024/02/14 21:37:41;;;;;;;3.05;2.15;;;;;;;8.09;100.00;98929.25;15296026;19;20034;-81
2024/02/14 21:43:07;;;;;;;2.42;2.08;;;;;;;8.12;100.00;98931.69;15293602;19;20010;-80
2024/02/14 21:48:34;;;;;;;3.33;2.10;;;;;;;8.13;100.00;98934.22;15307906;19;20010;-80
2024/02/14 21:54:02;;;;;;;3.33;2.17;;;;;;;8.15;100.00;98939.50;15304561;19;20027;-81
2024/02/14 21:59:27;;;;;;;2.13;1.92;;;;;;;8.18;100.00;98936.50;15305077;19;20424;-80
2024/02/14 22:05:01;;;;;;;2.00;1.85;;;;;;;8.22;100.00;98945.19;15295529;19;20015;-81
2024/02/14 22:10:26;;;;;;;2.05;1.85;;;;;;;8.23;100.00;98955.78;15295702;19;20018;-81
2024/02/14 22:15:50;;;;;;;2.67;1.88;;;;;;;8.25;100.00;98947.56;15297840;19;20512;-81
2024/02/14 22:21:18;;;;;;;1.70;1.60;;;;;;;8.24;100.00;98945.88;15304076;19;20026;-82
2024/02/14 22:26:43;;;;;;;2.25;1.80;;;;;;;8.25;100.00;98951.13;15302986;19;20019;-81
2024/02/14 22:32:09;;;;;;;1.73;1.63;;;;;;;8.26;100.00;98952.81;15303950;19;20062;-80
2024/02/14 22:37:37;;;;;;;1.50;1.30;;;;;;;8.29;100.00;98959.75;15305269;19;20018;-80
2024/02/14 22:43:02;;;;;;;4.20;1.50;;;;;;;8.33;100.00;98967.41;15301180;19;20387;-80
2024/02/14 22:48:27;;;;;;;1.92;1.52;;;;;;;8.36;100.00;98977.00;15299212;19;20010;-80
2024/02/14 22:53:55;;;;;;;1.80;1.40;;;;;;;8.41;100.00;98972.09;15302086;19;20021;-82
2024/02/14 22:59:19;;;;;;;1.63;1.30;;;;;;;8.40;100.00;98974.94;15304268;19;20017;-80
2024/02/14 23:04:50;;;;;;;2.42;1.35;;;;;;;8.36;100.00;98977.00;15305522;19;20017;-81
2024/02/14 23:10:20;;;;;;;1.23;1.13;;;;;;;8.34;100.00;98968.28;15317673;19;20015;-80
2024/02/14 23:15:44;;;;;;;1.98;1.60;;;;;;;8.35;100.00;98977.16;15312650;19;20014;-81
2024/02/14 23:21:12;;;;;;;1.45;1.20;;;;;;;8.38;100.00;98971.53;15311612;19;20018;-80
2024/02/14 23:26:42;;;;;;;1.15;1.10;;;;;;;8.42;100.00;98987.25;15322477;19;20017;-80
2024/02/14 23:32:08;;;;;;;1.30;1.20;;;;;;;8.43;100.00;98980.03;15338724;19;20022;-80
2024/02/14 23:37:33;;;;;;;2.13;1.25;;;;;;;8.43;100.00;98980.03;15357727;19;20017;-81
2024/02/14 23:43:01;;;;;;;1.30;1.20;;;;;;;8.43;100.00;98980.88;15339182;19;20013;-81
2024/02/14 23:48:25;;;;;;;1.90;1.30;;;;;;;8.45;100.00;98981.63;15339088;19;20022;-81
2024/02/14 23:53:50;;;;;;;1.98;1.20;;;;;;;8.46;100.00;98979.75;15330896;19;20006;-81
2024/02/14 23:59:26;;;;;;;2.22;1.25;;;;;;;8.48;100.00;98972.47;15359173;19;20015;-80
